Time;durP1;ratioP1;P1;durP2;ratioP2;P2;SDS_P1;SDS_P2;PMS_P1;PMS_P2;Temp;Humidity;BMP_temperature;BMP_pressure;BME280_temperature;BME280_humidity;BME280_pressure;Samples;Min_cycle;Max_cycle;Signal;HPM_P1;HPM_P2
2022/06/25 00:00:55;;;;;;;5.43;4.63;;;19.70;79.00;;;;;;5113802;28;20044;-67
2022/06/25 00:03:20;;;;;;;9.23;4.90;;;19.80;78.50;;;;;;5113777;28;20035;-67
2022/06/25 00:05:46;;;;;;;5.75;5.15;;;19.80;78.00;;;;;;5113787;28;20098;-67
2022/06/25 00:08:11;;;;;;;7.78;5.30;;;19.80;77.90;;;;;;5113613;28;20063;-67
2022/06/25 00:10:37;;;;;;;5.95;4.88;;;19.80;77.70;;;;;;5113657;28;20032;-67
2022/06/25 00:13:03;;;;;;;6.40;4.70;;;19.70;77.90;;;;;;5113693;28;20081;-67
2022/06/25 00:15:28;;;;;;;5.25;4.57;;;19.80;77.90;;;;;;5113606;28;20056;-67
2022/06/25 00:17:54;;;;;;;6.45;4.68;;;19.80;77.70;;;;;;5095644;28;20039;-67
2022/06/25 00:20:20;;;;;;;5.78;4.50;;;19.80;77.70;;;;;;5113531;28;20119;-67
2022/06/25 00:22:46;;;;;;;5.35;4.85;;;19.80;78.50;;;;;;5113512;28;20031;-67
2022/06/25 00:25:11;;;;;;;5.82;5.00;;;19.90;77.20;;;;;;5113432;28;20036;-67
2022/06/25 00:27:37;;;;;;;6.25;4.47;;;20.00;76.70;;;;;;5113226;28;20044;-67
2022/06/25 00:30:05;;;;;;;6.30;4.43;;;19.90;77.00;;;;;;5113381;28;20024;-67
2022/06/25 00:32:30;;;;;;;5.50;4.22;;;19.80;76.90;;;;;;5113381;28;20020;-67
2022/06/25 00:34:56;;;;;;;5.72;4.38;;;19.70;77.00;;;;;;5113380;28;20077;-67
2022/06/25 00:37:22;;;;;;;4.93;4.28;;;19.60;77.50;;;;;;5113413;28;20038;-67
2022/06/25 00:39:48;;;;;;;6.57;4.63;;;19.50;77.70;;;;;;5113345;28;20024;-67
2022/06/25 00:42:14;;;;;;;4.65;4.10;;;19.50;77.70;;;;;;5113331;28;20035;-67
2022/06/25 00:44:40;;;;;;;4.68;4.10;;;19.50;77.50;;;;;;5113290;28;20024;-67
2022/06/25 00:47:12;;;;;;;6.55;4.35;;;19.50;77.50;;;;;;5113286;28;20020;-67
2022/06/25 00:49:39;;;;;;;5.78;3.95;;;19.40;77.50;;;;;;5113274;28;20024;-67
2022/06/25 00:52:13;;;;;;;5.55;3.80;;;19.40;77.70;;;;;;5113251;28;20044;-67
2022/06/25 00:54:48;;;;;;;6.43;3.97;;;19.40;77.70;;;;;;5113234;28;20518;-67
2022/06/25 00:57:19;;;;;;;5.30;3.75;;;19.30;77.90;;;;;;5113266;28;20017;-67
2022/06/25 00:59:50;;;;;;;5.60;3.83;;;19.30;78.00;;;;;;5113243;28;20024;-67
2022/06/25 01:02:15;;;;;;;6.28;3.83;;;19.20;78.20;;;;;;5113256;28;20032;-67
2022/06/25 01:04:41;;;;;;;6.60;4.13;;;19.20;78.30;;;;;;5113116;28;20032;-67
2022/06/25 01:07:08;;;;;;;8.35;3.90;;;19.10;78.30;;;;;;5113092;28;20088;-67
2022/06/25 01:09:34;;;;;;;6.03;3.97;;;19.10;78.40;;;;;;5113045;28;20027;-67
2022/06/25 01:12:00;;;;;;;6.38;3.95;;;19.00;78.70;;;;;;5116671;28;20028;-67
2022/06/25 01:14:26;;;;;;;6.40;3.95;;;19.00;79.10;;;;;;5117031;28;20037;-67
2022/06/25 01:16:52;;;;;;;4.22;3.80;;;18.80;79.40;;;;;;5116911;28;20024;-67
2022/06/25 01:19:17;;;;;;;5.00;4.13;;;18.80;79.80;;;;;;5117018;28;20032;-67
2022/06/25 01:21:44;;;;;;;7.80;4.45;;;18.70;79.90;;;;;;5099059;28;20058;-67
2022/06/25 01:24:11;;;;;;;4.30;3.45;;;18.80;79.90;;;;;;5116801;28;20034;-67
2022/06/25 01:26:39;;;;;;;5.68;3.67;;;18.80;80.70;;;;;;5116733;28;20044;-67
2022/06/25 01:29:05;;;;;;;5.90;3.30;;;18.70;79.90;;;;;;5116448;28;20051;-67
2022/06/25 01:31:31;;;;;;;4.32;3.50;;;18.70;80.00;;;;;;5116661;28;20032;-68
2022/06/25 01:33:58;;;;;;;7.07;3.40;;;18.80;79.80;;;;;;5116638;28;20028;-67
2022/06/25 01:36:24;;;;;;;4.82;3.13;;;18.70;79.90;;;;;;5116594;28;20044;-67
2022/06/25 01:38:49;;;;;;;4.68;3.20;;;18.80;79.60;;;;;;5116521;28;20028;-67
2022/06/25 01:41:15;;;;;;;4.43;3.08;;;18.90;79.20;;;;;;5116517;28;20039;-67
2022/06/25 01:43:41;;;;;;;5.80;3.15;;;18.90;79.00;;;;;;5116469;28;20028;-69
2022/06/25 01:46:08;;;;;;;4.65;3.10;;;18.90;78.90;;;;;;5116440;28;20043;-69
2022/06/25 01:48:34;;;;;;;5.18;3.22;;;19.00;78.70;;;;;;5116281;28;20024;-69
2022/06/25 01:50:59;;;;;;;3.60;3.03;;;19.10;78.60;;;;;;5116321;28;20030;-69
2022/06/25 01:53:25;;;;;;;4.22;3.00;;;19.10;78.20;;;;;;5116255;28;20032;-69
2022/06/25 01:55:51;;;;;;;5.07;3.15;;;19.10;77.90;;;;;;5116225;28;20045;-69
2022/06/25 01:58:17;;;;;;;4.57;2.97;;;19.10;77.60;;;;;;5116158;28;20047;-69
2022/06/25 02:00:42;;;;;;;3.72;3.08;;;19.20;77.60;;;;;;5116107;28;20052;-69
2022/06/25 02:03:08;;;;;;;3.40;3.10;;;19.20;77.40;;;;;;5116074;28;20039;-69
2022/06/25 02:08:19;;;;;;;6.68;3.50;;;19.20;77.10;;;;;;5116160;28;20038;-67
2022/06/25 02:10:46;;;;;;;5.07;3.50;;;19.20;77.40;;;;;;5115953;28;20024;-67
2022/06/25 02:13:11;;;;;;;7.57;3.40;;;19.20;77.30;;;;;;5115914;28;20107;-67
2022/06/25 02:15:37;;;;;;;4.90;3.88;;;19.20;77.10;;;;;;5115850;28;20036;-67
2022/06/25 02:18:04;;;;;;;6.15;3.60;;;19.10;77.20;;;;;;5115769;28;20069;-67
2022/06/25 02:20:29;;;;;;;6.40;4.03;;;19.00;77.50;;;;;;5115781;28;20028;-67
2022/06/25 02:22:55;;;;;;;7.57;3.95;;;19.00;77.50;;;;;;5115386;28;20016;-67
2022/06/25 02:25:21;;;;;;;3.90;3.50;;;19.00;77.50;;;;;;5115669;28;20024;-67
2022/06/25 02:27:47;;;;;;;5.72;3.90;;;18.90;77.30;;;;;;5115277;28;20044;-67
2022/06/25 02:30:13;;;;;;;5.88;3.50;;;18.80;77.20;;;;;;5115560;28;20024;-67
2022/06/25 02:32:38;;;;;;;5.22;3.55;;;18.80;77.60;;;;;;5115578;28;20099;-67
2022/06/25 02:35:04;;;;;;;5.68;4.05;;;18.60;77.90;;;;;;5097626;28;20103;-67
2022/06/25 02:37:30;;;;;;;6.55;3.75;;;18.50;78.50;;;;;;5115432;28;20051;-67
2022/06/25 02:39:56;;;;;;;6.32;3.90;;;18.50;79.00;;;;;;5115393;28;20032;-67
2022/06/25 02:42:21;;;;;;;5.90;3.92;;;18.40;79.40;;;;;;5115398;28;20028;-67
2022/06/25 02:44:47;;;;;;;6.65;3.72;;;18.50;79.50;;;;;;5115317;28;20106;-67
2022/06/25 02:47:13;;;;;;;6.13;4.10;;;18.50;79.30;;;;;;5115338;28;20028;-67
2022/06/25 02:49:38;;;;;;;9.38;3.83;;;18.60;79.20;;;;;;5115117;28;20085;-67
2022/06/25 02:52:04;;;;;;;5.65;4.28;;;18.50;79.00;;;;;;5115180;28;20080;-67
2022/06/25 02:54:30;;;;;;;5.85;3.97;;;18.60;78.90;;;;;;5115228;28;20063;-67
2022/06/25 02:59:43;;;;;;;5.30;4.28;;;18.50;79.00;;;;;;5073463;28;20051;-67
2022/06/25 03:02:08;;;;;;;4.85;3.95;;;18.40;79.10;;;;;;5114942;28;20035;-67
2022/06/25 03:04:36;;;;;;;5.38;4.03;;;18.50;79.10;;;;;;5114934;28;20086;-67
2022/06/25 03:07:02;;;;;;;5.90;3.97;;;18.50;78.80;;;;;;5114840;28;20050;-67
2022/06/25 03:09:28;;;;;;;6.45;4.32;;;18.50;80.00;;;;;;5097008;28;20035;-67
2022/06/25 03:11:53;;;;;;;6.95;4.55;;;18.60;78.70;;;;;;5114718;28;20028;-67
2022/06/25 03:14:19;;;;;;;5.50;3.88;;;18.60;78.20;;;;;;5114722;28;20032;-67
2022/06/25 03:16:45;;;;;;;6.30;4.00;;;18.70;77.70;;;;;;5096755;28;20038;-67
2022/06/25 03:19:10;;;;;;;5.45;3.97;;;18.70;77.60;;;;;;5114626;28;20049;-67
2022/06/25 03:21:36;;;;;;;7.60;4.50;;;18.70;77.70;;;;;;5114615;28;20040;-67
2022/06/25 03:24:03;;;;;;;6.13;3.88;;;18.80;77.60;;;;;;5114554;28;20079;-67
2022/06/25 03:26:29;;;;;;;5.03;3.80;;;18.80;77.30;;;;;;5114496;28;20044;-67
2022/06/25 03:28:56;;;;;;;7.43;4.70;;;18.80;77.20;;;;;;5114112;28;20051;-69
2022/06/25 03:31:21;;;;;;;8.82;4.32;;;18.80;77.20;;;;;;5114366;28;20027;-67
2022/06/25 03:33:48;;;;;;;9.18;4.22;;;18.80;77.10;;;;;;5113616;28;20024;-67
2022/06/25 03:36:13;;;;;;;6.43;4.57;;;18.80;77.10;;;;;;5114343;28;20028;-67
2022/06/25 03:38:39;;;;;;;6.35;4.05;;;18.70;77.10;;;;;;5114261;28;20514;-67
2022/06/25 03:43:49;;;;;;;5.75;4.20;;;18.50;78.10;;;;;;5114309;28;20050;-67
2022/06/25 03:46:15;;;;;;;8.07;4.65;;;18.30;78.60;;;;;;5114107;28;20032;-67
2022/06/25 03:48:41;;;;;;;6.65;4.32;;;18.20;79.20;;;;;;5114006;28;20032;-67
2022/06/25 03:51:07;;;;;;;8.43;4.70;;;18.10;79.70;;;;;;5114032;28;20062;-67
2022/06/25 03:53:32;;;;;;;6.78;4.53;;;18.10;80.10;;;;;;5113993;28;20028;-67
2022/06/25 03:55:59;;;;;;;6.72;4.40;;;18.00;80.40;;;;;;5114068;28;20024;-67
2022/06/25 03:58:25;;;;;;;5.93;4.30;;;18.00;81.00;;;;;;5113960;28;20024;-67
2022/06/25 04:00:50;;;;;;;5.72;4.43;;;18.00;81.30;;;;;;5113863;28;20157;-67
2022/06/25 04:03:16;;;;;;;5.75;4.38;;;17.90;81.30;;;;;;5096009;28;20016;-67
2022/06/25 04:05:42;;;;;;;6.93;4.40;;;18.00;81.10;;;;;;5113810;28;20036;-68
2022/06/25 04:08:07;;;;;;;7.28;4.18;;;18.00;81.20;;;;;;5113708;28;20076;-69
2022/06/25 04:10:33;;;;;;;8.13;4.57;;;18.00;81.70;;;;;;5113754;28;20024;-69
2022/06/25 04:12:58;;;;;;;6.18;4.35;;;18.00;82.10;;;;;;5113734;28;20033;-69
2022/06/25 04:15:24;;;;;;;6.88;4.32;;;18.00;82.30;;;;;;5113684;28;20039;-69
2022/06/25 04:17:50;;;;;;;5.85;4.30;;;18.00;82.20;;;;;;5113649;28;20043;-69
2022/06/25 04:20:15;;;;;;;6.18;4.72;;;18.10;82.40;;;;;;5113639;28;20024;-69
2022/06/25 04:22:41;;;;;;;6.72;4.60;;;18.10;82.50;;;;;;5113572;28;20547;-69
2022/06/25 04:25:07;;;;;;;7.80;4.82;;;18.10;82.50;;;;;;5113568;28;20020;-69
2022/06/25 04:30:18;;;;;;;7.15;4.68;;;18.20;82.60;;;;;;5113662;28;20111;-69
2022/06/25 04:32:43;;;;;;;4.95;4.28;;;18.20;82.70;;;;;;5113607;28;20028;-69
2022/06/25 04:35:09;;;;;;;8.55;4.80;;;18.20;82.90;;;;;;5113443;28;20171;-69
2022/06/25 04:37:34;;;;;;;8.88;4.93;;;18.20;83.20;;;;;;5113557;28;20048;-69
2022/06/25 04:40:00;;;;;;;6.13;5.03;;;18.30;83.20;;;;;;5113415;28;20102;-67
2022/06/25 04:42:26;;;;;;;6.55;4.78;;;18.40;83.80;;;;;;5113530;28;20021;-67
2022/06/25 04:44:51;;;;;;;7.80;5.88;;;18.30;83.50;;;;;;5115148;28;20483;-67
2022/06/25 04:47:17;;;;;;;6.75;5.18;;;18.40;83.20;;;;;;5117666;28;20080;-67
2022/06/25 04:49:42;;;;;;;7.18;5.40;;;18.40;82.90;;;;;;5117595;28;20083;-67
2022/06/25 04:52:08;;;;;;;7.75;6.20;;;18.50;83.00;;;;;;5117515;28;20028;-67
2022/06/25 04:54:34;;;;;;;9.77;5.80;;;18.50;83.00;;;;;;5117431;28;20051;-67
2022/06/25 04:56:59;;;;;;;6.95;5.10;;;18.50;83.00;;;;;;5117487;28;20055;-68
2022/06/25 04:59:25;;;;;;;8.63;5.82;;;18.50;82.80;;;;;;5117347;28;20024;-69
2022/06/25 05:01:52;;;;;;;9.63;6.10;;;18.60;82.70;;;;;;5117452;28;20059;-67
2022/06/25 05:04:17;;;;;;;8.93;6.40;;;18.60;82.60;;;;;;5117283;28;20027;-67
2022/06/25 05:06:44;;;;;;;7.43;5.50;;;18.70;82.60;;;;;;5117151;28;20032;-67
2022/06/25 05:09:10;;;;;;;6.03;5.03;;;18.60;82.60;;;;;;5117115;28;20016;-67
2022/06/25 05:11:35;;;;;;;8.25;5.47;;;18.60;82.80;;;;;;5117124;28;20024;-67
2022/06/25 05:14:01;;;;;;;7.05;5.53;;;18.60;83.00;;;;;;5117224;28;20039;-68
2022/06/25 05:16:28;;;;;;;6.15;5.22;;;18.70;82.90;;;;;;5117004;28;20032;-69
2022/06/25 05:18:53;;;;;;;7.18;6.10;;;18.70;83.00;;;;;;5117003;28;20032;-67
2022/06/25 05:21:19;;;;;;;7.50;5.15;;;18.80;82.90;;;;;;5116963;28;20031;-69
2022/06/25 05:23:45;;;;;;;7.93;5.43;;;18.80;82.90;;;;;;5116898;28;20032;-69
2022/06/25 05:26:10;;;;;;;8.30;5.22;;;18.90;82.60;;;;;;5098997;28;20094;-69
2022/06/25 05:28:37;;;;;;;6.90;5.25;;;18.90;82.60;;;;;;5116491;28;20076;-69
2022/06/25 05:31:02;;;;;;;7.60;5.38;;;19.00;82.10;;;;;;5116760;28;20073;-69
2022/06/25 05:33:28;;;;;;;8.80;4.85;;;19.10;82.90;;;;;;5116713;28;20047;-69
2022/06/25 05:35:54;;;;;;;7.78;5.10;;;19.20;81.90;;;;;;5116617;28;20020;-69
2022/06/25 05:38:19;;;;;;;5.88;4.93;;;19.20;81.60;;;;;;5116653;28;20035;-69
2022/06/25 05:40:45;;;;;;;7.32;4.43;;;19.30;81.70;;;;;;5116578;28;20054;-69
2022/06/25 05:43:11;;;;;;;7.75;4.72;;;19.30;80.50;;;;;;5116501;28;20024;-69
2022/06/25 05:45:36;;;;;;;7.88;5.43;;;19.30;80.20;;;;;;5098501;28;20042;-69
2022/06/25 05:48:03;;;;;;;6.22;4.55;;;19.30;80.60;;;;;;5098418;28;20043;-69
2022/06/25 05:50:29;;;;;;;6.50;5.22;;;19.30;80.80;;;;;;5116404;28;20024;-68
2022/06/25 05:52:55;;;;;;;8.18;5.10;;;19.30;80.50;;;;;;5116319;28;20074;-69
2022/06/25 05:55:22;;;;;;;10.25;4.90;;;19.30;80.10;;;;;;5116327;28;20027;-69
2022/06/25 05:57:48;;;;;;;8.02;5.05;;;19.40;80.70;;;;;;5115584;28;20020;-69
2022/06/25 06:00:14;;;;;;;8.02;4.85;;;19.50;81.30;;;;;;5116203;28;20024;-69
2022/06/25 06:02:40;;;;;;;6.85;4.30;;;19.40;80.30;;;;;;5116181;28;20543;-69
2022/06/25 06:05:06;;;;;;;5.32;4.25;;;19.50;80.30;;;;;;5116103;28;20020;-69
2022/06/25 06:07:32;;;;;;;7.03;4.80;;;19.40;80.80;;;;;;5115931;28;20024;-69
2022/06/25 06:09:57;;;;;;;5.35;4.38;;;19.50;80.10;;;;;;5098059;28;20024;-69
2022/06/25 06:12:23;;;;;;;5.25;4.13;;;19.60;80.00;;;;;;5115966;28;20035;-69
2022/06/25 06:14:49;;;;;;;5.47;4.00;;;19.60;79.70;;;;;;5115924;28;20025;-69
2022/06/25 06:17:14;;;;;;;5.88;4.60;;;19.70;79.50;;;;;;5115880;28;20016;-69
2022/06/25 06:19:40;;;;;;;9.10;3.88;;;19.70;78.70;;;;;;5115801;28;20036;-69
2022/06/25 06:22:06;;;;;;;5.45;4.22;;;19.80;78.40;;;;;;5115772;28;20046;-69
2022/06/25 06:24:31;;;;;;;5.38;3.90;;;19.90;78.80;;;;;;5097926;28;20043;-69
2022/06/25 06:26:57;;;;;;;7.88;3.95;;;19.90;77.30;;;;;;5115644;28;20091;-69
2022/06/25 06:29:23;;;;;;;6.32;3.80;;;20.00;77.20;;;;;;5115344;28;20052;-69
2022/06/25 06:31:48;;;;;;;7.78;3.67;;;20.10;79.00;;;;;;5115561;28;20028;-69
2022/06/25 06:34:14;;;;;;;7.07;2.97;;;20.10;77.30;;;;;;5115476;28;20020;-69
2022/06/25 06:36:40;;;;;;;5.10;2.92;;;20.10;76.30;;;;;;5115486;28;20023;-69
2022/06/25 06:39:05;;;;;;;6.35;3.50;;;20.20;76.90;;;;;;5115417;28;20032;-69
2022/06/25 06:41:31;;;;;;;5.05;3.60;;;20.20;76.30;;;;;;5115355;28;20039;-69
2022/06/25 06:43:57;;;;;;;4.80;3.33;;;20.30;77.40;;;;;;5115441;28;20024;-69
2022/06/25 06:46:22;;;;;;;5.25;3.50;;;20.40;77.80;;;;;;5115265;28;20122;-69
2022/06/25 06:48:48;;;;;;;4.60;3.47;;;20.50;76.60;;;;;;5115150;28;20054;-69
2022/06/25 06:51:13;;;;;;;5.05;3.22;;;20.50;77.10;;;;;;5115157;28;20032;-69
2022/06/25 06:53:39;;;;;;;6.28;2.97;;;20.60;76.80;;;;;;5115114;28;20024;-69
2022/06/25 06:56:04;;;;;;;5.82;3.40;;;20.70;76.30;;;;;;5115045;28;20017;-69
2022/06/25 06:58:30;;;;;;;8.23;3.70;;;20.80;75.70;;;;;;5114989;28;20114;-69
2022/06/25 07:00:57;;;;;;;5.00;3.25;;;20.80;74.60;;;;;;5114902;28;20084;-69
2022/06/25 07:03:22;;;;;;;4.75;3.47;;;20.80;74.80;;;;;;5114895;28;20027;-69
2022/06/25 07:05:48;;;;;;;3.95;3.33;;;20.80;75.90;;;;;;5114857;28;20087;-69
2022/06/25 07:08:14;;;;;;;5.68;3.60;;;20.90;74.60;;;;;;5113623;28;20048;-70
2022/06/25 07:10:39;;;;;;;6.22;3.35;;;20.90;74.50;;;;;;5114827;28;20028;-69
2022/06/25 07:13:05;;;;;;;5.63;3.42;;;20.90;74.10;;;;;;5114748;28;20032;-69
2022/06/25 07:15:30;;;;;;;4.88;2.92;;;21.00;74.30;;;;;;5114705;28;20028;-69
2022/06/25 07:17:56;;;;;;;5.25;3.33;;;20.90;74.60;;;;;;5114759;28;20046;-69
2022/06/25 07:20:22;;;;;;;5.32;3.35;;;20.90;74.50;;;;;;5114570;28;20055;-69
2022/06/25 07:22:47;;;;;;;5.82;3.40;;;21.00;74.30;;;;;;5114618;28;20032;-69
2022/06/25 07:25:13;;;;;;;6.55;3.60;;;21.10;74.50;;;;;;5114506;28;20047;-69
2022/06/25 07:27:39;;;;;;;5.95;3.10;;;21.00;73.20;;;;;;5114189;28;20058;-70
2022/06/25 07:30:05;;;;;;;5.32;3.08;;;21.00;73.00;;;;;;5114400;28;20050;-69
2022/06/25 07:32:31;;;;;;;4.95;2.85;;;21.00;72.70;;;;;;5114520;28;20037;-69
2022/06/25 07:34:57;;;;;;;4.20;2.80;;;21.10;73.70;;;;;;5114297;28;20024;-69
2022/06/25 07:37:22;;;;;;;3.70;2.55;;;21.20;72.90;;;;;;5114233;28;20051;-69
2022/06/25 07:39:48;;;;;;;3.97;2.40;;;21.20;72.40;;;;;;5114205;28;20047;-69
2022/06/25 07:42:14;;;;;;;4.30;2.92;;;21.20;73.10;;;;;;5114195;28;20403;-69
2022/06/25 07:44:39;;;;;;;4.38;2.50;;;21.20;72.70;;;;;;5114138;28;20043;-69
2022/06/25 07:47:05;;;;;;;5.22;2.40;;;21.30;74.10;;;;;;5114044;28;20053;-69
2022/06/25 07:51:56;;;;;;;8.30;2.15;;;21.40;73.20;;;;;;5096063;28;20047;-69
2022/06/25 07:52:16;;;;;;;4.30;1.90;;;21.40;71.30;;;;;;5113935;28;20032;-69
2022/06/25 07:54:42;;;;;;;4.43;1.77;;;21.30;71.30;;;;;;5113946;28;20028;-69
2022/06/25 07:57:07;;;;;;;3.50;2.08;;;21.20;70.60;;;;;;5113991;28;20079;-69
2022/06/25 07:59:33;;;;;;;3.42;2.03;;;21.20;71.70;;;;;;5114035;28;20024;-69
2022/06/25 08:01:58;;;;;;;2.03;1.83;;;21.20;71.80;;;;;;5113862;28;20142;-69
2022/06/25 08:04:24;;;;;;;2.78;2.35;;;21.20;71.40;;;;;;5113803;28;20054;-69
2022/06/25 08:06:50;;;;;;;4.50;2.70;;;21.20;71.00;;;;;;5113886;28;20032;-69
2022/06/25 08:09:15;;;;;;;4.90;2.28;;;21.20;71.90;;;;;;5113660;28;20025;-69
2022/06/25 08:11:41;;;;;;;2.45;2.17;;;21.20;72.50;;;;;;5113840;28;20073;-69
2022/06/25 08:14:07;;;;;;;7.55;2.80;;;21.30;73.20;;;;;;5095767;28;20023;-69
2022/06/25 08:16:33;;;;;;;3.42;2.22;;;21.40;73.10;;;;;;5113768;28;20455;-69
2022/06/25 08:18:59;;;;;;;3.00;1.92;;;21.60;72.10;;;;;;5113384;28;20040;-69
2022/06/25 08:21:24;;;;;;;4.93;2.10;;;21.70;70.90;;;;;;5113596;28;20027;-69
2022/06/25 08:23:50;;;;;;;3.40;1.98;;;21.60;69.50;;;;;;5113657;28;20054;-69
2022/06/25 08:26:16;;;;;;;2.72;2.25;;;21.40;69.90;;;;;;5113466;28;20036;-69
2022/06/25 08:28:44;;;;;;;4.75;2.45;;;21.50;71.30;;;;;;5113107;28;20052;-69
2022/06/25 08:31:11;;;;;;;4.05;2.70;;;21.50;71.70;;;;;;5113483;28;20074;-69
2022/06/25 08:33:37;;;;;;;3.42;2.10;;;21.50;71.10;;;;;;5113471;28;20028;-69
2022/06/25 08:36:04;;;;;;;2.80;2.38;;;21.50;70.50;;;;;;5095550;28;20031;-69
2022/06/25 08:38:30;;;;;;;4.65;2.42;;;21.50;71.40;;;;;;5113414;28;20028;-69
2022/06/25 08:41:00;;;;;;;3.67;2.40;;;21.60;72.20;;;;;;5113383;28;20050;-69
2022/06/25 08:43:26;;;;;;;3.95;2.30;;;21.60;71.70;;;;;;5113419;28;20023;-69
2022/06/25 08:45:52;;;;;;;5.20;2.47;;;21.60;70.50;;;;;;5095435;28;20092;-69
2022/06/25 08:48:23;;;;;;;4.38;2.60;;;21.50;69.90;;;;;;5113183;28;20089;-69
2022/06/25 08:50:49;;;;;;;4.75;2.97;;;21.40;70.40;;;;;;5113271;28;20030;-69
2022/06/25 08:53:16;;;;;;;4.85;2.78;;;21.40;69.30;;;;;;5113274;28;20020;-69
2022/06/25 08:55:44;;;;;;;3.80;2.85;;;21.30;70.70;;;;;;5113191;28;20028;-69
2022/06/25 08:58:12;;;;;;;4.45;3.20;;;21.30;70.90;;;;;;5113219;28;20077;-69
2022/06/25 09:00:45;;;;;;;5.57;2.83;;;21.30;71.30;;;;;;5113231;28;20051;-69
2022/06/25 09:03:11;;;;;;;3.80;2.75;;;21.20;71.60;;;;;;5113205;28;20024;-69
2022/06/25 09:05:43;;;;;;;3.97;2.90;;;21.20;70.80;;;;;;5113163;28;20044;-69
2022/06/25 09:08:11;;;;;;;4.68;2.95;;;21.10;70.80;;;;;;5113136;28;20048;-69
2022/06/25 09:10:38;;;;;;;3.83;2.72;;;21.20;71.20;;;;;;5113097;28;20020;-69
2022/06/25 09:13:08;;;;;;;8.55;2.90;;;21.10;71.60;;;;;;5113096;28;20487;-68
2022/06/25 09:15:42;;;;;;;5.25;3.20;;;21.00;71.60;;;;;;5113181;28;20023;-69
2022/06/25 09:18:10;;;;;;;4.07;3.20;;;21.10;71.60;;;;;;5113013;28;20054;-69
2022/06/25 09:20:55;;;;;;;4.03;3.35;;;21.10;71.90;;;;;;5112883;28;20025;-69
2022/06/25 09:23:22;;;;;;;4.13;3.33;;;21.10;72.70;;;;;;5112941;28;20028;-69
2022/06/25 09:26:07;;;;;;;6.72;3.67;;;21.00;72.50;;;;;;5112834;28;20020;-69
2022/06/25 09:28:35;;;;;;;6.05;3.58;;;21.10;72.10;;;;;;5112547;28;20479;-69
2022/06/25 09:31:02;;;;;;;4.07;3.50;;;21.10;72.50;;;;;;5113183;28;20016;-69
2022/06/25 09:33:29;;;;;;;4.95;3.70;;;21.10;72.40;;;;;;5116719;28;20020;-69
2022/06/25 09:35:55;;;;;;;5.32;3.95;;;21.20;73.00;;;;;;5116641;28;20024;-69
2022/06/25 09:38:21;;;;;;;8.15;4.78;;;21.40;72.10;;;;;;5116575;28;20114;-69
2022/06/25 09:40:51;;;;;;;8.02;4.20;;;21.50;72.20;;;;;;5116519;28;20055;-69
2022/06/25 09:43:22;;;;;;;5.82;4.07;;;21.60;71.90;;;;;;5116666;28;20035;-69
2022/06/25 09:45:53;;;;;;;6.90;4.40;;;21.80;73.00;;;;;;5116539;28;20043;-69
2022/06/25 09:48:24;;;;;;;6.43;3.30;;;21.80;71.30;;;;;;5116412;28;20031;-69
2022/06/25 09:51:10;;;;;;;4.70;3.43;;;21.80;70.70;;;;;;5116563;28;20020;-69
2022/06/25 09:53:50;;;;;;;5.88;4.22;;;21.70;70.30;;;;;;5116290;28;20017;-69
2022/06/25 09:56:30;;;;;;;5.70;3.80;;;21.60;70.80;;;;;;5116289;28;20030;-69
2022/06/25 09:58:56;;;;;;;4.82;4.32;;;21.50;71.20;;;;;;5116201;28;20063;-69
2022/06/25 10:01:28;;;;;;;6.80;3.67;;;21.50;71.10;;;;;;5116163;28;20024;-69
2022/06/25 10:03:53;;;;;;;6.67;3.67;;;21.50;71.00;;;;;;5116175;28;20020;-69
2022/06/25 10:06:21;;;;;;;4.28;3.55;;;21.50;70.80;;;;;;5116076;28;20028;-69
2022/06/25 10:08:58;;;;;;;7.45;4.38;;;21.50;71.60;;;;;;5115938;28;20071;-69
2022/06/25 10:11:27;;;;;;;6.75;3.05;;;21.50;72.00;;;;;;5116139;28;20020;-68
2022/06/25 10:13:53;;;;;;;6.00;3.55;;;21.40;70.50;;;;;;5115940;28;20044;-69
2022/06/25 10:16:23;;;;;;;10.60;4.25;;;21.40;71.80;;;;;;5115860;28;20024;-69
2022/06/25 10:18:50;;;;;;;8.30;4.13;;;21.50;71.60;;;;;;5115840;28;20024;-69
2022/06/25 10:21:21;;;;;;;7.25;4.15;;;21.40;72.70;;;;;;5115763;28;20054;-69
2022/06/25 10:23:57;;;;;;;5.03;3.95;;;21.40;74.40;;;;;;5115790;28;20035;-69
2022/06/25 10:26:24;;;;;;;6.60;3.88;;;21.40;73.40;;;;;;5115711;28;20070;-69
2022/06/25 10:28:50;;;;;;;5.40;4.00;;;21.40;75.10;;;;;;5115276;28;20040;-69
2022/06/25 10:31:17;;;;;;;5.93;3.55;;;21.40;75.00;;;;;;5115550;28;20047;-69
2022/06/25 10:33:57;;;;;;;4.75;3.28;;;21.50;74.90;;;;;;5115576;28;20075;-69
2022/06/25 10:36:43;;;;;;;5.05;3.80;;;21.50;74.30;;;;;;5115473;28;20024;-69
2022/06/25 10:39:28;;;;;;;4.57;3.70;;;21.50;74.80;;;;;;5115405;28;20032;-69
2022/06/25 10:45:03;;;;;;;5.75;3.25;;;21.50;73.00;;;;;;5115431;28;20039;-69
2022/06/25 10:47:39;;;;;;;6.15;3.53;;;21.50;73.50;;;;;;5115395;28;20083;-69
2022/06/25 10:50:22;;;;;;;5.22;3.53;;;21.50;72.80;;;;;;5115133;28;20034;-69
2022/06/25 10:53:03;;;;;;;5.22;3.75;;;21.60;73.70;;;;;;5097263;28;20020;-69
2022/06/25 10:55:30;;;;;;;6.40;3.85;;;21.70;74.10;;;;;;5115121;28;20082;-69
2022/06/25 10:58:25;;;;;;;6.97;3.38;;;21.70;73.60;;;;;;5115054;28;20020;-67
2022/06/25 11:00:55;;;;;;;5.40;3.80;;;21.80;73.40;;;;;;5114994;28;20024;-67
2022/06/25 11:03:27;;;;;;;5.50;3.25;;;21.80;74.10;;;;;;5114959;28;20027;-67
2022/06/25 11:05:54;;;;;;;5.65;3.75;;;21.90;72.50;;;;;;5114924;28;20111;-67
2022/06/25 11:08:23;;;;;;;7.32;3.78;;;21.90;72.50;;;;;;5096908;28;20036;-66
2022/06/25 11:10:49;;;;;;;5.00;3.03;;;21.90;72.00;;;;;;5114806;28;20028;-66
2022/06/25 11:13:15;;;;;;;6.00;3.22;;;21.90;71.10;;;;;;5114763;28;20076;-67
2022/06/25 11:15:42;;;;;;;4.78;3.33;;;21.90;71.40;;;;;;5114739;28;20036;-67
2022/06/25 11:18:13;;;;;;;4.28;3.13;;;22.00;72.20;;;;;;5114704;28;20055;-67
2022/06/25 11:20:39;;;;;;;5.38;3.30;;;22.00;71.40;;;;;;5114623;28;20032;-67
2022/06/25 11:23:05;;;;;;;4.72;3.63;;;22.10;71.60;;;;;;5114556;28;20028;-67
2022/06/25 11:28:52;;;;;;;5.20;3.42;;;22.10;71.80;;;;;;5114375;28;20047;-69
2022/06/25 11:31:19;;;;;;;5.72;3.70;;;22.10;71.60;;;;;;5114562;28;20433;-69
2022/06/25 11:33:46;;;;;;;8.00;4.22;;;22.20;73.30;;;;;;5114352;28;20020;-69
2022/06/25 11:36:12;;;;;;;6.38;4.40;;;22.20;72.40;;;;;;5114378;28;20034;-69
2022/06/25 11:38:40;;;;;;;5.53;3.67;;;22.40;72.80;;;;;;5114303;28;20050;-69
2022/06/25 11:41:06;;;;;;;5.88;3.00;;;22.60;72.10;;;;;;5114244;28;20042;-69
2022/06/25 11:43:34;;;;;;;5.13;2.80;;;22.80;70.20;;;;;;5114305;28;20028;-67
2022/06/25 11:46:01;;;;;;;3.60;3.08;;;22.80;67.70;;;;;;5114174;28;20038;-67
2022/06/25 11:48:31;;;;;;;4.57;3.00;;;22.80;69.40;;;;;;5095991;28;20452;-67
2022/06/25 11:51:01;;;;;;;4.22;2.75;;;22.90;68.20;;;;;;5114036;28;20027;-67
2022/06/25 11:53:27;;;;;;;3.58;2.63;;;23.00;69.20;;;;;;5113779;28;20031;-68
2022/06/25 11:55:57;;;;;;;3.75;2.53;;;23.10;68.20;;;;;;5113617;28;20055;-69
2022/06/25 11:58:26;;;;;;;2.80;2.28;;;23.00;67.20;;;;;;5114016;28;20057;-67
2022/06/25 12:00:55;;;;;;;4.10;2.67;;;23.10;67.90;;;;;;5113907;28;20043;-66
2022/06/25 12:03:27;;;;;;;2.90;2.00;;;23.10;67.90;;;;;;5113893;28;20087;-69
2022/06/25 12:05:59;;;;;;;3.97;2.45;;;23.00;66.40;;;;;;5113891;28;20024;-70
2022/06/25 12:08:26;;;;;;;2.85;2.10;;;23.00;68.10;;;;;;5113787;28;20028;-69
2022/06/25 12:10:54;;;;;;;3.70;2.40;;;23.10;67.90;;;;;;5113799;28;20080;-67
2022/06/25 12:13:20;;;;;;;2.80;2.28;;;23.10;67.80;;;;;;5113725;28;20070;-67
2022/06/25 12:15:47;;;;;;;2.30;2.10;;;23.20;67.90;;;;;;5113827;28;20042;-67
2022/06/25 12:18:12;;;;;;;2.42;1.90;;;23.10;65.90;;;;;;5113673;28;20486;-67
2022/06/25 12:20:55;;;;;;;2.80;2.22;;;23.10;65.60;;;;;;5113627;28;20052;-67
2022/06/25 12:23:20;;;;;;;3.42;2.00;;;23.10;66.60;;;;;;5113583;28;20483;-67
2022/06/25 12:25:48;;;;;;;3.28;2.20;;;23.20;66.00;;;;;;5113466;28;20043;-67
2022/06/25 12:28:14;;;;;;;2.35;2.15;;;23.20;66.10;;;;;;5113142;28;20039;-67
2022/06/25 12:30:39;;;;;;;2.72;2.42;;;23.30;66.50;;;;;;5113519;28;20066;-69
2022/06/25 12:33:13;;;;;;;2.28;2.08;;;23.20;64.70;;;;;;5113405;28;20024;-69
2022/06/25 12:35:43;;;;;;;3.15;2.17;;;23.20;66.10;;;;;;5113634;28;20024;-69
2022/06/25 12:38:11;;;;;;;3.95;2.20;;;23.20;65.60;;;;;;5113432;28;20036;-69
2022/06/25 12:40:44;;;;;;;3.08;2.28;;;23.30;65.00;;;;;;5113425;28;20024;-69
2022/06/25 12:43:11;;;;;;;3.78;2.20;;;23.50;65.60;;;;;;5113542;28;20031;-69
2022/06/25 12:45:39;;;;;;;2.95;2.30;;;23.50;65.70;;;;;;5113450;28;20052;-69
2022/06/25 12:48:06;;;;;;;2.78;2.38;;;23.50;65.10;;;;;;5113245;28;20088;-69
2022/06/25 12:50:34;;;;;;;2.40;2.20;;;23.50;64.40;;;;;;5113332;28;20028;-69
2022/06/25 12:53:07;;;;;;;5.53;2.22;;;23.60;64.90;;;;;;5113399;28;20024;-69
2022/06/25 12:55:33;;;;;;;2.38;1.75;;;23.60;64.50;;;;;;5113283;28;20084;-69
2022/06/25 12:58:04;;;;;;;2.60;2.40;;;23.60;64.20;;;;;;5113261;28;20036;-69
2022/06/25 13:00:30;;;;;;;2.42;2.15;;;23.50;64.90;;;;;;5113272;28;20039;-69
2022/06/25 13:02:56;;;;;;;2.25;1.88;;;23.60;64.30;;;;;;5113146;28;20017;-69
2022/06/25 13:05:22;;;;;;;1.90;1.75;;;23.60;64.70;;;;;;5114057;28;20016;-69